createdAt,value
2022-12-04T00:03:47.897Z,77.99
2022-12-04T00:07:59.491Z,77.92
2022-12-04T00:12:10.988Z,77.87
2022-12-04T00:16:24.855Z,77.92
2022-12-04T00:20:39.598Z,78.15
2022-12-04T00:24:51.132Z,77.96
2022-12-04T00:29:02.709Z,77.77
2022-12-04T00:33:14.194Z,78.19
2022-12-04T00:37:25.669Z,77.79
2022-12-04T00:41:38.100Z,77.80
2022-12-04T00:45:50.572Z,77.93
2022-12-04T00:50:02.180Z,77.98
2022-12-04T00:54:13.628Z,77.83
2022-12-04T00:58:25.117Z,77.82
2022-12-04T01:02:36.585Z,78.17
2022-12-04T01:06:48.135Z,77.66
2022-12-04T01:10:59.788Z,77.97
2022-12-04T01:15:11.398Z,78.09
2022-12-04T01:19:22.839Z,78.21
2022-12-04T01:23:34.271Z,78.21
2022-12-04T01:27:45.732Z,78.21
2022-12-04T01:31:57.298Z,77.94
2022-12-04T01:36:12.269Z,78.44
2022-12-04T01:40:23.887Z,78.21
2022-12-04T01:44:35.415Z,78.44
2022-12-04T01:48:51.916Z,78.31
2022-12-04T01:53:03.575Z,78.09
2022-12-04T01:57:18.198Z,78.51
2022-12-04T02:01:35.883Z,78.41
2022-12-04T02:05:47.446Z,78.35
2022-12-04T02:10:03.840Z,78.27
2022-12-04T02:14:41.646Z,78.45
2022-12-04T02:19:23.370Z,78.58
2022-12-04T02:23:53.244Z,78.48
2022-12-04T02:28:13.033Z,78.61
2022-12-04T02:32:39.688Z,78.84
2022-12-04T02:36:57.351Z,78.54
2022-12-04T02:41:13.244Z,78.76
2022-12-04T02:45:30.177Z,78.84
2022-12-04T02:49:46.256Z,78.68
2022-12-04T02:54:04.550Z,78.75
2022-12-04T02:58:23.827Z,78.34
2022-12-04T03:02:51.623Z,78.46
2022-12-04T03:07:15.233Z,78.32
2022-12-04T03:11:30.700Z,78.22
2022-12-04T03:15:47.613Z,78.64
2022-12-04T03:20:05.638Z,78.72
2022-12-04T03:24:24.580Z,78.69
2022-12-04T03:28:53.054Z,78.92
2022-12-04T03:33:13.398Z,78.86
2022-12-04T03:37:41.271Z,78.72
2022-12-04T03:42:04.601Z,78.96
2022-12-04T03:46:23.569Z,78.50
2022-12-04T03:50:41.843Z,78.63
2022-12-04T03:55:04.451Z,79.17
2022-12-04T03:59:22.616Z,79.00
2022-12-04T04:03:38.504Z,78.83
2022-12-04T04:08:17.989Z,78.60
2022-12-04T04:12:35.602Z,79.14
2022-12-04T04:17:11.259Z,78.99
2022-12-04T04:21:45.889Z,79.24
2022-12-04T04:26:00.705Z,79.02
2022-12-04T04:30:12.420Z,78.95
2022-12-04T04:34:45.711Z,79.13
2022-12-04T04:39:06.219Z,79.02
2022-12-04T04:43:26.543Z,79.30
2022-12-04T04:47:46.574Z,78.99
2022-12-04T04:51:59.054Z,79.28
2022-12-04T04:56:11.129Z,79.33
2022-12-04T05:00:23.105Z,78.73
2022-12-04T05:04:34.672Z,79.34
2022-12-04T05:08:49.162Z,79.14
2022-12-04T05:13:00.716Z,79.12
2022-12-04T05:17:12.938Z,79.23
2022-12-04T05:21:24.680Z,79.31
2022-12-04T05:25:36.247Z,79.10
2022-12-04T05:29:48.023Z,79.47
2022-12-04T05:33:59.596Z,79.07
2022-12-04T05:38:11.145Z,79.29
2022-12-04T05:42:22.892Z,79.47
2022-12-04T05:46:37.865Z,79.00
2022-12-04T05:50:49.343Z,79.50
2022-12-04T05:55:00.937Z,79.26
2022-12-04T05:59:12.460Z,79.55
2022-12-04T06:03:24.167Z,79.08
2022-12-04T06:07:35.772Z,79.28
2022-12-04T06:11:47.205Z,79.38
2022-12-04T06:15:58.694Z,78.99
2022-12-04T06:20:11.887Z,79.18
2022-12-04T06:24:24.684Z,79.56
2022-12-04T06:28:37.152Z,79.31
2022-12-04T06:32:48.677Z,79.34
2022-12-04T06:37:00.154Z,79.18
2022-12-04T06:41:15.112Z,79.39
2022-12-04T06:45:26.595Z,79.53
2022-12-04T06:49:38.229Z,79.57
2022-12-04T06:53:50.139Z,79.56
2022-12-04T06:58:01.603Z,79.30
2022-12-04T07:02:13.558Z,79.54
2022-12-04T07:06:30.660Z,79.29
2022-12-04T07:10:42.931Z,79.62
2022-12-04T07:14:54.431Z,79.37
2022-12-04T07:19:05.851Z,79.61
2022-12-04T07:23:17.276Z,79.63
2022-12-04T07:27:31.051Z,79.58
2022-12-04T07:31:44.362Z,79.76
2022-12-04T07:35:58.295Z,79.45
2022-12-04T07:40:10.197Z,79.46
2022-12-04T07:44:21.628Z,79.88
2022-12-04T07:48:33.704Z,79.83
2022-12-04T07:52:45.215Z,79.67
2022-12-04T07:56:56.912Z,79.58
2022-12-04T08:01:16.213Z,79.99
2022-12-04T08:05:27.788Z,79.77
2022-12-04T08:09:39.464Z,79.97
2022-12-04T08:13:56.172Z,80.08
2022-12-04T08:18:07.670Z,79.99
2022-12-04T08:22:24.726Z,80.15
2022-12-04T08:26:36.953Z,80.02
2022-12-04T08:30:48.435Z,79.74
2022-12-04T08:34:59.998Z,79.97
2022-12-04T08:39:12.811Z,79.82
2022-12-04T08:43:24.286Z,80.31
2022-12-04T08:47:35.784Z,80.07
2022-12-04T08:51:47.194Z,80.04
2022-12-04T08:56:00.788Z,80.20
2022-12-04T09:00:12.951Z,80.13
2022-12-04T09:04:24.450Z,79.77
2022-12-04T09:08:36.369Z,80.21
2022-12-04T09:12:47.900Z,79.96
2022-12-04T09:16:59.349Z,80.10
2022-12-04T09:21:13.348Z,80.12
2022-12-04T09:25:24.854Z,80.13
2022-12-04T09:29:36.319Z,80.00
2022-12-04T09:33:48.060Z,79.53
2022-12-04T09:37:59.799Z,79.95
2022-12-04T09:42:17.373Z,79.69
2022-12-04T09:46:43.032Z,79.69
2022-12-04T09:50:55.232Z,79.47
2022-12-04T09:55:13.954Z,79.51
2022-12-04T09:59:29.143Z,79.54
2022-12-04T10:03:40.785Z,79.38
2022-12-04T10:08:20.628Z,79.26
2022-12-04T10:12:36.848Z,79.16
2022-12-04T10:17:15.755Z,79.11
2022-12-04T10:21:45.403Z,78.97
2022-12-04T10:25:57.974Z,78.83
2022-12-04T10:30:29.639Z,78.78
2022-12-04T10:34:45.568Z,78.91
2022-12-04T10:39:10.949Z,78.52
2022-12-04T10:43:43.711Z,78.77
2022-12-04T10:47:55.413Z,78.64
2022-12-04T10:52:09.184Z,78.67
2022-12-04T10:56:24.700Z,78.51
2022-12-04T11:00:36.235Z,78.27
2022-12-04T11:04:56.178Z,78.63
2022-12-04T11:09:08.469Z,78.39
2022-12-04T11:13:21.185Z,78.34
2022-12-04T11:17:33.349Z,78.40
2022-12-04T11:21:45.007Z,78.67
2022-12-04T11:26:03.760Z,78.15
2022-12-04T11:30:34.753Z,78.16
2022-12-04T11:34:46.941Z,78.08
2022-12-04T11:39:12.506Z,77.96
2022-12-04T11:43:26.835Z,78.33
2022-12-04T11:47:38.620Z,78.04
2022-12-04T11:52:01.744Z,78.24
2022-12-04T11:56:33.727Z,78.26
2022-12-04T12:01:11.176Z,78.29
2022-12-04T12:05:22.785Z,78.21
2022-12-04T12:09:59.872Z,78.07
2022-12-04T12:14:51.011Z,78.08
2022-12-04T12:19:31.410Z,77.85
2022-12-04T12:24:09.839Z,78.09
2022-12-04T12:28:36.697Z,78.13
2022-12-04T12:32:54.381Z,77.96
2022-12-04T12:37:18.068Z,78.00
2022-12-04T12:41:37.999Z,77.73
2022-12-04T12:46:16.872Z,78.12
2022-12-04T12:51:14.716Z,78.07
2022-12-04T12:55:36.014Z,78.02
2022-12-04T12:59:55.849Z,78.28
2022-12-04T13:04:32.529Z,78.29
2022-12-04T13:09:05.964Z,78.35
2022-12-04T13:13:23.184Z,77.98
2022-12-04T13:17:38.422Z,78.15
2022-12-04T13:21:52.917Z,77.95
2022-12-04T13:26:37.312Z,78.14
2022-12-04T13:30:57.139Z,77.83
2022-12-04T13:35:14.679Z,78.04
2022-12-04T13:40:07.268Z,78.02
2022-12-04T13:44:24.288Z,78.22
2022-12-04T13:48:42.663Z,78.21
2022-12-04T13:52:54.811Z,78.60
2022-12-04T13:57:12.575Z,78.39
2022-12-04T14:01:29.152Z,78.30
2022-12-04T14:05:43.375Z,78.88
2022-12-04T14:09:57.127Z,78.62
2022-12-04T14:14:24.456Z,78.45
2022-12-04T14:18:36.164Z,78.96
2022-12-04T14:22:47.817Z,79.00
2022-12-04T14:27:14.837Z,78.82
2022-12-04T14:31:36.419Z,78.90
2022-12-04T14:35:53.652Z,78.92
2022-12-04T14:40:09.622Z,79.08
2022-12-04T14:44:31.359Z,79.10
2022-12-04T14:48:55.286Z,79.30
2022-12-04T14:53:23.984Z,79.50
2022-12-04T14:57:57.319Z,79.26
2022-12-04T15:02:35.607Z,79.46
2022-12-04T15:06:50.858Z,79.25
2022-12-04T15:11:25.271Z,79.54
2022-12-04T15:15:37.476Z,79.51
2022-12-04T15:19:49.237Z,79.28
2022-12-04T15:24:00.802Z,79.40
2022-12-04T15:28:28.578Z,79.62
2022-12-04T15:32:40.251Z,79.72
2022-12-04T15:37:16.003Z,80.07
2022-12-04T15:41:31.809Z,80.16
2022-12-04T15:45:44.107Z,79.92
2022-12-04T15:50:10.468Z,80.35
2022-12-04T15:54:24.475Z,80.25
2022-12-04T15:58:40.757Z,80.37
2022-12-04T16:02:52.856Z,80.58
2022-12-04T16:07:04.588Z,80.67
2022-12-04T16:11:20.181Z,80.70
2022-12-04T16:15:38.480Z,80.73
2022-12-04T16:19:50.075Z,80.93
2022-12-04T16:24:03.047Z,80.69
2022-12-04T16:28:14.647Z,80.60
2022-12-04T16:32:32.132Z,80.80
2022-12-04T16:36:46.711Z,80.82
2022-12-04T16:40:58.295Z,80.97
2022-12-04T16:45:23.172Z,80.55
2022-12-04T16:49:34.684Z,80.95
2022-12-04T16:53:46.660Z,80.94
2022-12-04T16:57:58.188Z,81.07
2022-12-04T17:02:23.259Z,80.63
2022-12-04T17:06:34.752Z,81.32
2022-12-04T17:10:46.767Z,80.85
2022-12-04T17:14:58.425Z,80.84
2022-12-04T17:19:11.235Z,80.97
2022-12-04T17:23:22.746Z,81.20
2022-12-04T17:27:35.467Z,80.95
2022-12-04T17:31:47.230Z,81.06
2022-12-04T17:36:00.344Z,81.21
2022-12-04T17:40:15.751Z,81.07
2022-12-04T17:44:27.434Z,80.76
2022-12-04T17:48:39.668Z,80.72
2022-12-04T17:52:51.288Z,80.75
2022-12-04T17:57:03.036Z,80.84
2022-12-04T18:01:21.569Z,80.90
2022-12-04T18:05:33.389Z,80.62
2022-12-04T18:09:45.001Z,81.17
2022-12-04T18:14:04.785Z,81.17
2022-12-04T18:18:18.845Z,81.28
2022-12-04T18:22:30.379Z,80.98
2022-12-04T18:26:44.477Z,81.06
2022-12-04T18:30:56.108Z,81.25
2022-12-04T18:35:08.154Z,81.82
2022-12-04T18:39:24.509Z,81.48
2022-12-04T18:43:38.059Z,81.89
2022-12-04T18:47:49.660Z,81.67
2022-12-04T18:52:01.237Z,81.68
2022-12-04T18:56:13.604Z,81.91
2022-12-04T19:00:25.176Z,81.60
2022-12-04T19:04:36.759Z,81.86
2022-12-04T19:08:48.335Z,82.33
2022-12-04T19:12:59.932Z,82.21
2022-12-04T19:17:11.791Z,82.12
2022-12-04T19:21:24.319Z,82.51
2022-12-04T19:25:36.478Z,82.90
2022-12-04T19:29:48.053Z,82.87
2022-12-04T19:34:00.138Z,83.41
2022-12-04T19:38:11.720Z,83.51
2022-12-04T19:42:23.268Z,83.77
2022-12-04T19:46:35.129Z,83.94
2022-12-04T19:50:46.697Z,84.44
2022-12-04T19:54:58.254Z,84.17
2022-12-04T19:59:10.416Z,84.46
2022-12-04T20:03:22.479Z,84.83
2022-12-04T20:07:34.111Z,84.82
2022-12-04T20:11:45.829Z,84.89
2022-12-04T20:16:02.173Z,84.71
2022-12-04T20:20:13.892Z,85.04
2022-12-04T20:24:25.518Z,85.11
2022-12-04T20:28:37.875Z,85.55
2022-12-04T20:32:49.533Z,85.27
2022-12-04T20:37:01.068Z,85.08
2022-12-04T20:41:15.877Z,85.32
2022-12-04T20:45:27.601Z,85.45
2022-12-04T20:49:39.255Z,85.57
2022-12-04T20:53:51.644Z,85.79
2022-12-04T20:58:04.000Z,85.33
2022-12-04T21:02:15.763Z,85.37
2022-12-04T21:06:34.481Z,85.48
2022-12-04T21:10:46.637Z,85.28
2022-12-04T21:15:16.802Z,85.73
2022-12-04T21:19:28.872Z,84.94
2022-12-04T21:23:40.549Z,85.09
2022-12-04T21:27:52.316Z,85.05
2022-12-04T21:32:05.459Z,85.11
2022-12-04T21:36:17.842Z,85.11
2022-12-04T21:40:29.463Z,85.23
2022-12-04T21:44:41.024Z,85.29
2022-12-04T21:48:53.099Z,85.12
2022-12-04T21:53:04.993Z,85.32
2022-12-04T21:57:16.695Z,85.50
2022-12-04T22:01:28.584Z,85.26
2022-12-04T22:06:08.256Z,85.08
2022-12-04T22:10:19.891Z,85.25
2022-12-04T22:14:31.565Z,85.43
2022-12-04T22:18:44.341Z,84.74
2022-12-04T22:22:55.889Z,84.95
2022-12-04T22:27:09.516Z,84.79
2022-12-04T22:31:23.722Z,84.79
2022-12-04T22:35:35.436Z,85.16
2022-12-04T22:39:47.012Z,84.81
2022-12-04T22:43:58.612Z,84.95
2022-12-04T22:48:10.209Z,84.96
2022-12-04T22:52:21.792Z,84.99
2022-12-04T22:56:34.110Z,85.05
2022-12-04T23:00:45.705Z,84.59
2022-12-04T23:04:57.248Z,84.56
2022-12-04T23:09:13.804Z,84.78
2022-12-04T23:13:25.324Z,84.98
2022-12-04T23:17:36.901Z,85.28
2022-12-04T23:21:55.151Z,85.03
2022-12-04T23:26:13.544Z,85.16
2022-12-04T23:30:28.448Z,85.22
2022-12-04T23:34:42.114Z,85.79
2022-12-04T23:38:54.105Z,85.92
2022-12-04T23:43:05.660Z,85.77
2022-12-04T23:47:17.321Z,85.62
2022-12-04T23:51:29.852Z,85.58
2022-12-04T23:55:41.333Z,86.03
2022-12-04T23:59:53.079Z,86.09
